Time;durP1;ratioP1;P1;durP2;ratioP2;P2;SDS_P1;SDS_P2;PMS_P1;PMS_P2;Temp;Humidity;BMP_temperature;BMP_pressure;BME280_temperature;BME280_humidity;BME280_pressure;Samples;Min_cycle;Max_cycle;Signal;HPM_P1;HPM_P2
2021/03/27 00:02:32;;;;;;;26.25;21.08;;;11.90;99.90;;;;;;5041468;28;20218;-69
2021/03/27 00:05:11;;;;;;;27.20;21.45;;;11.90;99.90;;;;;;5045848;28;20215;-69
2021/03/27 00:08:08;;;;;;;31.05;23.23;;;11.80;99.90;;;;;;5043891;28;20229;-69
2021/03/27 00:10:40;;;;;;;33.58;24.02;;;11.70;99.90;;;;;;5040599;28;20261;-69
2021/03/27 00:13:18;;;;;;;24.73;20.10;;;11.60;99.90;;;;;;5043858;28;20198;-69
2021/03/27 00:15:54;;;;;;;24.77;19.15;;;11.50;99.90;;;;;;5045619;28;20696;-69
2021/03/27 00:18:27;;;;;;;24.95;19.83;;;11.40;99.90;;;;;;5044312;28;20570;-69
2021/03/27 00:20:59;;;;;;;29.63;20.63;;;11.40;99.90;;;;;;5052900;28;20214;-69
2021/03/27 00:23:33;;;;;;;27.08;20.70;;;11.30;99.90;;;;;;5041985;28;20198;-68
2021/03/27 00:26:06;;;;;;;28.23;21.50;;;11.20;99.90;;;;;;5047950;28;20698;-69
2021/03/27 00:28:40;;;;;;;24.83;20.10;;;11.20;99.90;;;;;;5045286;28;20576;-70
2021/03/27 00:31:12;;;;;;;25.33;19.38;;;11.10;99.90;;;;;;5044385;28;20225;-69
2021/03/27 00:33:43;;;;;;;27.88;21.95;;;11.10;99.90;;;;;;5042405;28;20199;-69
2021/03/27 00:36:13;;;;;;;25.42;20.90;;;11.10;99.90;;;;;;5042751;28;20231;-71
2021/03/27 00:38:43;;;;;;;26.33;19.58;;;11.00;99.90;;;;;;5045666;28;20195;-68
2021/03/27 00:41:23;;;;;;;25.25;19.92;;;10.90;99.90;;;;;;5048394;28;20602;-70
2021/03/27 00:43:56;;;;;;;23.77;19.00;;;10.90;99.90;;;;;;5040620;28;20223;-68
2021/03/27 00:46:24;;;;;;;24.20;19.23;;;10.90;99.90;;;;;;5043024;28;20231;-69
2021/03/27 00:48:56;;;;;;;25.63;20.45;;;11.00;99.90;;;;;;5045968;28;20195;-69
2021/03/27 00:51:27;;;;;;;33.35;20.63;;;11.00;99.90;;;;;;5045906;28;20223;-71
2021/03/27 00:54:00;;;;;;;27.40;20.63;;;11.00;99.90;;;;;;5044486;28;20206;-69
2021/03/27 00:56:31;;;;;;;25.20;19.52;;;11.00;99.90;;;;;;5041890;28;20227;-69
2021/03/27 00:59:01;;;;;;;29.20;21.40;;;11.00;99.90;;;;;;5046386;28;22293;-69
2021/03/27 01:01:34;;;;;;;22.77;18.73;;;11.00;99.90;;;;;;5048222;28;20223;-68
2021/03/27 01:04:02;;;;;;;23.75;18.33;;;11.00;99.90;;;;;;5039352;28;20196;-69
2021/03/27 01:06:33;;;;;;;24.10;18.20;;;11.00;99.90;;;;;;5036061;28;20233;-68
2021/03/27 01:09:02;;;;;;;25.40;19.63;;;10.90;99.90;;;;;;5041555;28;20206;-68
2021/03/27 01:11:36;;;;;;;25.08;19.23;;;10.80;99.90;;;;;;5043515;28;20215;-69
2021/03/27 01:14:06;;;;;;;23.95;18.88;;;10.80;99.90;;;;;;5036143;28;20208;-70
2021/03/27 01:16:35;;;;;;;26.17;20.35;;;10.70;99.90;;;;;;5048657;28;20268;-69
2021/03/27 01:19:07;;;;;;;24.45;19.30;;;10.70;99.90;;;;;;5043664;28;20252;-70
2021/03/27 01:21:38;;;;;;;22.75;18.27;;;10.60;99.90;;;;;;5041122;28;20586;-70
2021/03/27 01:24:08;;;;;;;23.55;18.23;;;10.60;99.90;;;;;;5044803;28;20299;-69
2021/03/27 01:26:41;;;;;;;19.65;16.23;;;10.70;99.90;;;;;;5042318;28;20592;-73
2021/03/27 01:29:12;;;;;;;21.58;16.27;;;10.70;99.90;;;;;;5044957;28;20221;-69
2021/03/27 01:31:41;;;;;;;25.42;20.55;;;10.80;99.90;;;;;;5043122;28;20229;-70
2021/03/27 01:34:19;;;;;;;27.23;21.02;;;10.70;99.90;;;;;;5045527;28;20568;-68
2021/03/27 01:36:50;;;;;;;29.50;21.77;;;10.60;99.90;;;;;;5034210;28;20219;-70
2021/03/27 01:39:19;;;;;;;28.25;22.20;;;10.50;99.90;;;;;;5042746;28;20206;-72
2021/03/27 01:42:05;;;;;;;26.05;20.25;;;10.40;99.90;;;;;;5041265;28;20231;-69
2021/03/27 01:44:54;;;;;;;23.58;19.33;;;10.40;99.90;;;;;;5035547;28;20223;-69
2021/03/27 01:47:28;;;;;;;28.10;21.27;;;10.30;99.90;;;;;;5044197;28;20227;-71
2021/03/27 01:50:14;;;;;;;30.27;23.23;;;10.30;99.90;;;;;;5040843;28;20219;-71
2021/03/27 01:53:07;;;;;;;28.38;21.70;;;10.20;99.90;;;;;;5049422;28;20211;-72
2021/03/27 01:56:05;;;;;;;25.58;20.10;;;10.20;99.90;;;;;;5039232;28;20190;-73
2021/03/27 01:58:36;;;;;;;26.95;21.20;;;10.20;99.90;;;;;;5049358;28;20195;-69
2021/03/27 02:01:06;;;;;;;26.73;20.98;;;10.30;99.90;;;;;;5037099;28;20231;-70
2021/03/27 02:03:42;;;;;;;37.63;26.90;;;10.30;99.90;;;;;;5044725;28;20260;-70
2021/03/27 02:06:11;;;;;;;27.60;21.75;;;10.30;99.90;;;;;;5041361;28;20276;-69
2021/03/27 02:09:03;;;;;;;25.83;20.13;;;10.30;99.90;;;;;;5040522;28;20719;-71
2021/03/27 02:11:42;;;;;;;23.40;18.85;;;10.40;99.90;;;;;;5037514;28;20229;-71
2021/03/27 02:14:16;;;;;;;21.77;17.85;;;10.40;99.90;;;;;;5041446;28;20195;-69
2021/03/27 02:16:49;;;;;;;21.10;17.38;;;10.50;99.90;;;;;;5039065;28;20219;-68
2021/03/27 02:20:13;;;;;;;22.05;17.20;;;10.50;99.90;;;;;;5040855;28;20199;-72
2021/03/27 02:22:43;;;;;;;21.98;16.88;;;10.50;99.90;;;;;;4964023;28;20217;-71
2021/03/27 02:25:55;;;;;;;24.98;19.60;;;10.60;99.90;;;;;;5036001;28;20231;-70
2021/03/27 02:28:39;;;;;;;19.92;16.38;;;10.60;99.90;;;;;;4978411;28;20217;-69
2021/03/27 02:31:13;;;;;;;23.60;17.65;;;10.60;99.90;;;;;;5035420;28;20221;-70
2021/03/27 02:33:45;;;;;;;24.00;19.33;;;10.60;99.90;;;;;;5036325;28;20223;-68
2021/03/27 02:36:24;;;;;;;24.17;19.70;;;10.50;99.90;;;;;;5039769;28;20223;-69
2021/03/27 02:38:58;;;;;;;25.80;19.67;;;10.50;99.90;;;;;;5044176;28;20689;-69
2021/03/27 02:41:48;;;;;;;22.45;19.27;;;10.40;99.90;;;;;;5042239;28;20210;-70
2021/03/27 02:44:23;;;;;;;26.17;20.50;;;10.40;99.90;;;;;;5035675;28;20226;-71
2021/03/27 02:46:54;;;;;;;22.23;18.75;;;10.30;99.90;;;;;;5040974;28;20245;-69
2021/03/27 02:49:33;;;;;;;21.23;17.45;;;10.30;99.90;;;;;;5043682;28;20218;-69
2021/03/27 02:52:22;;;;;;;25.73;21.02;;;10.40;99.90;;;;;;5044497;28;20194;-69
2021/03/27 02:54:56;;;;;;;21.05;17.92;;;10.30;99.90;;;;;;5050098;28;20215;-71
2021/03/27 02:57:29;;;;;;;21.45;18.02;;;10.30;99.90;;;;;;5044076;28;20688;-68
2021/03/27 03:00:02;;;;;;;24.85;19.92;;;10.30;99.90;;;;;;5051018;28;20214;-68
2021/03/27 03:02:42;;;;;;;24.90;19.17;;;10.30;99.90;;;;;;5040230;28;20586;-69
2021/03/27 03:05:14;;;;;;;22.17;18.05;;;10.30;99.90;;;;;;5045224;28;20225;-70
2021/03/27 03:07:51;;;;;;;24.00;19.73;;;10.30;99.90;;;;;;5045710;28;20219;-68
2021/03/27 03:10:25;;;;;;;20.52;17.13;;;10.20;99.90;;;;;;5047542;28;20605;-70
2021/03/27 03:13:00;;;;;;;24.70;18.85;;;10.30;99.90;;;;;;5044868;28;20194;-69
2021/03/27 03:15:32;;;;;;;22.95;17.95;;;10.30;99.90;;;;;;5040515;28;20709;-71
2021/03/27 03:18:08;;;;;;;21.13;17.50;;;10.30;99.90;;;;;;5041610;28;20211;-69
2021/03/27 03:20:44;;;;;;;22.42;18.85;;;10.30;99.90;;;;;;5036324;28;20243;-69
2021/03/27 03:23:24;;;;;;;21.02;17.73;;;10.30;99.90;;;;;;5048731;28;20770;-69
2021/03/27 03:25:59;;;;;;;20.85;17.83;;;10.30;99.90;;;;;;5039663;28;20202;-69
2021/03/27 03:28:32;;;;;;;29.23;21.30;;;10.30;99.90;;;;;;5035525;28;20604;-69
2021/03/27 03:31:19;;;;;;;27.20;21.23;;;10.20;99.90;;;;;;5044023;28;20192;-69
2021/03/27 03:34:08;;;;;;;28.90;20.88;;;10.20;99.90;;;;;;5050002;28;20284;-69
2021/03/27 03:36:44;;;;;;;26.25;21.08;;;10.10;99.90;;;;;;5042469;28;20566;-70
2021/03/27 03:39:33;;;;;;;22.95;18.60;;;10.00;99.90;;;;;;5042458;28;20295;-72
2021/03/27 03:42:11;;;;;;;23.90;19.75;;;10.00;99.90;;;;;;5049430;28;20289;-69
2021/03/27 03:44:55;;;;;;;23.60;18.20;;;10.00;99.90;;;;;;5039227;28;20234;-69
2021/03/27 03:47:33;;;;;;;24.88;19.48;;;9.90;99.90;;;;;;5060974;22;20234;-73
2021/03/27 03:50:36;;;;;;;20.75;17.50;;;9.90;99.90;;;;;;5040861;28;20226;-72
2021/03/27 03:53:33;;;;;;;23.95;17.58;;;9.90;99.90;;;;;;5047546;28;20206;-73
2021/03/27 03:56:16;;;;;;;20.48;17.33;;;9.90;99.90;;;;;;5049675;28;20211;-73
2021/03/27 03:59:02;;;;;;;22.25;19.20;;;9.90;99.90;;;;;;5050695;28;20574;-73
2021/03/27 04:01:41;;;;;;;26.15;19.00;;;9.80;99.90;;;;;;5038663;28;20218;-73
2021/03/27 04:04:14;;;;;;;23.27;18.58;;;9.70;99.90;;;;;;5046119;28;20252;-73
2021/03/27 04:06:42;;;;;;;23.77;20.40;;;9.60;99.90;;;;;;5045802;28;20219;-73
2021/03/27 04:09:16;;;;;;;24.05;19.55;;;9.60;99.90;;;;;;5048006;28;20191;-72
2021/03/27 04:11:54;;;;;;;24.35;19.17;;;9.60;99.90;;;;;;5048992;28;20222;-72
2021/03/27 04:14:44;;;;;;;22.90;18.50;;;9.60;99.90;;;;;;5050103;28;20461;-73
2021/03/27 04:17:18;;;;;;;21.08;16.95;;;9.60;99.90;;;;;;5047778;28;20932;-72
2021/03/27 04:19:52;;;;;;;20.30;17.35;;;9.60;99.90;;;;;;5048449;28;20264;-73
2021/03/27 04:22:27;;;;;;;21.95;18.73;;;9.70;99.90;;;;;;5051994;28;20238;-73
2021/03/27 04:25:15;;;;;;;24.63;20.40;;;9.70;99.90;;;;;;5045106;28;20195;-73
2021/03/27 04:27:51;;;;;;;27.67;22.17;;;9.60;99.90;;;;;;5046953;28;20233;-72
2021/03/27 04:30:29;;;;;;;29.98;23.55;;;9.60;99.90;;;;;;5048465;28;20202;-73
2021/03/27 04:33:03;;;;;;;28.60;23.17;;;9.40;99.90;;;;;;5047267;28;20211;-73
2021/03/27 04:35:47;;;;;;;25.02;20.83;;;9.30;99.90;;;;;;5047379;28;20195;-72
2021/03/27 04:38:19;;;;;;;22.58;19.40;;;9.20;99.90;;;;;;5048541;28;20227;-72
2021/03/27 04:40:52;;;;;;;23.63;19.77;;;9.20;99.90;;;;;;5047247;28;20199;-73
2021/03/27 04:43:24;;;;;;;22.63;19.48;;;9.20;99.90;;;;;;5049652;28;20219;-74
2021/03/27 04:45:55;;;;;;;19.90;17.13;;;9.20;99.90;;;;;;5041193;28;20757;-72
2021/03/27 04:48:37;;;;;;;19.42;17.10;;;9.20;99.90;;;;;;5045219;28;20235;-73
2021/03/27 04:51:36;;;;;;;21.63;17.55;;;9.30;99.90;;;;;;5044197;28;20191;-72
2021/03/27 04:54:09;;;;;;;20.75;18.48;;;9.30;99.90;;;;;;5035280;28;20205;-73
2021/03/27 04:56:51;;;;;;;21.27;18.55;;;9.30;99.90;;;;;;5049589;28;20218;-72
2021/03/27 04:59:28;;;;;;;26.75;21.85;;;9.20;99.90;;;;;;5046293;28;20221;-72
2021/03/27 05:02:03;;;;;;;28.45;22.63;;;9.10;99.90;;;;;;5043291;28;20241;-72
2021/03/27 05:04:34;;;;;;;26.40;21.55;;;8.90;99.90;;;;;;5049546;28;20194;-72
2021/03/27 05:07:07;;;;;;;24.23;21.05;;;8.90;99.90;;;;;;5042037;28;20614;-72
2021/03/27 05:09:42;;;;;;;25.63;20.58;;;8.90;99.90;;;;;;5050401;28;20603;-72
2021/03/27 05:12:15;;;;;;;21.25;18.92;;;8.90;99.90;;;;;;5045689;28;20225;-72
2021/03/27 05:15:06;;;;;;;22.13;18.90;;;9.00;99.90;;;;;;5049248;28;20201;-73
2021/03/27 05:18:15;;;;;;;22.02;19.58;;;9.00;99.90;;;;;;5045201;28;20246;-73
2021/03/27 05:20:43;;;;;;;22.15;19.15;;;9.10;99.90;;;;;;5025756;28;20195;-72
2021/03/27 05:23:16;;;;;;;24.65;20.55;;;9.10;99.90;;;;;;5050089;28;20218;-73
2021/03/27 05:26:02;;;;;;;23.45;19.88;;;9.20;99.90;;;;;;5047570;28;20516;-72
2021/03/27 05:29:10;;;;;;;25.38;20.88;;;9.20;99.90;;;;;;5047925;28;20222;-73
2021/03/27 05:31:48;;;;;;;26.25;19.67;;;9.20;99.90;;;;;;4983083;28;20226;-72
2021/03/27 05:34:26;;;;;;;22.95;18.48;;;9.30;99.90;;;;;;5043573;28;20202;-73
2021/03/27 05:37:14;;;;;;;22.02;18.45;;;9.30;99.90;;;;;;5047400;28;20735;-74
2021/03/27 05:39:49;;;;;;;21.20;18.70;;;9.30;99.90;;;;;;5042373;28;20480;-73
2021/03/27 05:43:07;;;;;;;21.00;17.38;;;9.30;99.90;;;;;;5050371;28;20229;-72
2021/03/27 05:46:10;;;;;;;20.48;17.52;;;9.30;99.90;;;;;;5048507;28;20206;-73
2021/03/27 05:49:15;;;;;;;21.83;18.38;;;9.30;99.90;;;;;;5039582;28;20222;-73
2021/03/27 05:52:12;;;;;;;20.63;16.65;;;9.30;99.90;;;;;;5049071;28;20221;-73
2021/03/27 05:55:15;;;;;;;20.25;18.05;;;9.40;99.90;;;;;;5048690;28;20206;-73
2021/03/27 05:58:01;;;;;;;22.70;19.42;;;9.30;99.90;;;;;;5049348;28;20230;-73
2021/03/27 06:00:50;;;;;;;20.40;18.30;;;9.30;99.90;;;;;;5042200;28;20612;-73
2021/03/27 06:03:47;;;;;;;20.17;18.05;;;9.30;99.90;;;;;;5049362;28;20230;-73
2021/03/27 06:06:30;;;;;;;20.45;18.05;;;9.40;99.90;;;;;;5045728;28;20658;-73
2021/03/27 06:09:26;;;;;;;21.48;18.10;;;9.40;99.90;;;;;;5045014;28;20218;-73
2021/03/27 06:12:13;;;;;;;19.45;17.13;;;9.50;99.90;;;;;;5039956;28;20306;-73
2021/03/27 06:15:06;;;;;;;22.25;18.38;;;9.50;99.90;;;;;;5041057;28;20223;-73
2021/03/27 06:17:54;;;;;;;19.27;17.08;;;9.60;99.90;;;;;;5044492;28;20610;-73
2021/03/27 06:20:47;;;;;;;19.42;17.23;;;9.70;99.90;;;;;;5041813;28;20211;-73
2021/03/27 06:23:58;;;;;;;23.23;18.05;;;9.80;99.90;;;;;;5045147;28;20206;-73
2021/03/27 06:27:06;;;;;;;23.15;18.00;;;9.90;99.90;;;;;;5049080;28;20190;-73
2021/03/27 06:30:11;;;;;;;21.05;17.25;;;10.00;99.90;;;;;;5052929;28;20293;-73
2021/03/27 06:33:16;;;;;;;21.50;16.83;;;10.00;99.90;;;;;;5048670;28;20549;-73
2021/03/27 06:36:11;;;;;;;18.45;16.52;;;10.10;99.90;;;;;;5048361;28;20206;-72
2021/03/27 06:39:11;;;;;;;22.27;18.25;;;10.10;99.90;;;;;;5045564;28;20216;-73
2021/03/27 06:42:07;;;;;;;22.42;18.15;;;10.10;99.90;;;;;;5050424;28;20226;-73
2021/03/27 06:44:55;;;;;;;19.85;16.90;;;10.10;99.90;;;;;;5042770;28;20249;-73
2021/03/27 06:47:41;;;;;;;20.05;17.95;;;10.10;99.90;;;;;;5047210;28;20226;-73
2021/03/27 06:50:59;;;;;;;21.33;18.20;;;10.00;99.90;;;;;;5049400;28;20704;-73
2021/03/27 06:53:49;;;;;;;25.92;21.50;;;9.90;99.90;;;;;;4999263;28;20227;-73
2021/03/27 06:56:44;;;;;;;21.10;17.67;;;9.80;99.90;;;;;;4999020;28;20200;-73
2021/03/27 06:59:43;;;;;;;19.90;17.88;;;9.90;99.90;;;;;;5045478;28;20222;-73
2021/03/27 07:02:58;;;;;;;28.77;24.45;;;9.90;99.90;;;;;;5011545;28;20638;-73
2021/03/27 07:06:09;;;;;;;27.33;23.17;;;9.90;99.90;;;;;;4995635;28;20274;-72
2021/03/27 07:09:11;;;;;;;21.67;19.30;;;9.80;99.90;;;;;;5053609;28;20230;-74
2021/03/27 07:12:04;;;;;;;20.67;17.77;;;9.90;99.90;;;;;;5025752;28;20194;-74
2021/03/27 07:14:56;;;;;;;23.30;19.75;;;10.00;99.90;;;;;;5054893;28;20218;-73
2021/03/27 07:17:51;;;;;;;22.08;19.05;;;10.10;99.90;;;;;;5048022;28;20223;-73
2021/03/27 07:20:58;;;;;;;21.85;19.48;;;10.20;99.90;;;;;;5048846;28;20273;-73
2021/03/27 07:23:56;;;;;;;28.10;24.27;;;10.10;99.90;;;;;;5054319;28;20191;-73
2021/03/27 07:27:26;;;;;;;23.75;21.17;;;10.10;99.90;;;;;;5049312;28;20210;-73
2021/03/27 07:30:10;;;;;;;22.17;19.55;;;10.10;99.90;;;;;;5009367;28;20586;-74
2021/03/27 07:33:02;;;;;;;20.48;18.27;;;10.10;99.90;;;;;;5048136;28;20187;-73
2021/03/27 07:35:54;;;;;;;24.27;20.17;;;10.20;99.90;;;;;;5052119;28;20244;-73
2021/03/27 07:38:36;;;;;;;20.45;17.98;;;10.30;99.90;;;;;;5046718;28;20219;-73
2021/03/27 07:41:28;;;;;;;21.00;18.25;;;10.50;99.90;;;;;;5048679;28;20223;-73
2021/03/27 07:44:32;;;;;;;21.77;19.33;;;10.50;99.90;;;;;;5051708;28;20191;-74
2021/03/27 07:47:27;;;;;;;24.42;20.92;;;10.40;99.90;;;;;;5035609;28;20219;-73
2021/03/27 07:50:25;;;;;;;24.40;20.65;;;10.30;99.90;;;;;;5047474;28;20198;-72
2021/03/27 07:53:05;;;;;;;23.45;20.88;;;10.20;99.90;;;;;;5067950;28;20215;-74
2021/03/27 07:56:12;;;;;;;23.42;19.75;;;10.20;99.90;;;;;;5069860;28;20200;-74
2021/03/27 07:59:20;;;;;;;21.17;18.45;;;10.10;99.90;;;;;;5065269;28;20219;-75
2021/03/27 08:01:59;;;;;;;20.10;17.98;;;10.20;99.90;;;;;;5041247;28;20226;-76
2021/03/27 08:04:53;;;;;;;21.23;19.02;;;10.20;99.90;;;;;;5050176;28;20191;-76
2021/03/27 08:07:39;;;;;;;22.58;19.25;;;10.20;99.90;;;;;;5045570;28;20242;-75
2021/03/27 08:10:42;;;;;;;22.02;19.83;;;10.30;99.90;;;;;;5043406;28;20483;-74
2021/03/27 08:13:27;;;;;;;21.48;19.20;;;10.40;99.90;;;;;;5046292;28;20224;-74
2021/03/27 08:16:18;;;;;;;28.70;25.48;;;10.50;99.90;;;;;;5047344;28;20202;-74
2021/03/27 08:19:15;;;;;;;27.48;23.73;;;10.70;99.90;;;;;;5046630;28;20492;-74
2021/03/27 08:21:51;;;;;;;24.42;21.83;;;10.70;99.90;;;;;;5045815;28;20278;-74
2021/03/27 08:24:47;;;;;;;23.42;20.92;;;10.70;99.90;;;;;;5039156;28;20212;-76
2021/03/27 08:27:36;;;;;;;27.35;22.85;;;10.90;99.90;;;;;;5048484;28;20222;-76
2021/03/27 08:30:40;;;;;;;30.60;24.80;;;11.10;99.90;;;;;;5042450;28;20213;-75
2021/03/27 08:34:00;;;;;;;25.55;22.17;;;11.20;99.90;;;;;;5042996;28;20226;-75
2021/03/27 08:37:02;;;;;;;26.40;22.25;;;11.40;99.90;;;;;;5040932;28;20195;-75
2021/03/27 08:40:08;;;;;;;26.83;23.17;;;11.80;99.90;;;;;;5045258;28;20198;-75
2021/03/27 08:43:12;;;;;;;33.42;25.73;;;12.00;99.90;;;;;;5038083;28;20231;-75
2021/03/27 08:46:23;;;;;;;29.50;25.52;;;12.50;99.90;;;;;;5043438;28;20206;-73
2021/03/27 08:49:30;;;;;;;33.75;28.00;;;12.90;99.90;;;;;;5039954;28;20369;-74
2021/03/27 08:52:08;;;;;;;32.15;26.00;;;13.40;99.90;;;;;;5042788;28;20218;-74
2021/03/27 08:55:03;;;;;;;28.55;24.77;;;13.90;99.90;;;;;;5043801;28;20199;-73
2021/03/27 08:57:56;;;;;;;29.75;26.40;;;14.30;99.90;;;;;;5044089;28;20218;-74
2021/03/27 09:01:02;;;;;;;29.38;24.90;;;14.80;99.90;;;;;;5043914;28;20206;-73
2021/03/27 09:04:09;;;;;;;28.98;24.40;;;14.90;99.90;;;;;;5043424;28;20218;-73
2021/03/27 09:06:54;;;;;;;30.67;27.23;;;15.30;99.90;;;;;;5045392;28;20214;-75
2021/03/27 09:10:12;;;;;;;28.90;25.77;;;15.30;99.90;;;;;;5043137;28;20195;-74
2021/03/27 09:12:58;;;;;;;31.40;27.40;;;15.40;99.90;;;;;;5029814;28;20219;-74
2021/03/27 09:15:58;;;;;;;32.58;28.98;;;15.50;99.90;;;;;;5045950;28;20207;-75
2021/03/27 09:18:54;;;;;;;32.10;26.98;;;15.50;99.90;;;;;;5042376;28;20239;-73
2021/03/27 09:21:34;;;;;;;33.80;28.40;;;15.40;99.90;;;;;;5042340;28;20574;-75
2021/03/27 09:24:15;;;;;;;32.53;28.00;;;15.40;99.90;;;;;;5045421;28;20245;-74
2021/03/27 09:27:09;;;;;;;34.80;29.65;;;15.30;99.90;;;;;;5037745;28;20234;-73
2021/03/27 09:29:58;;;;;;;35.40;29.25;;;15.20;99.90;;;;;;5038314;28;20196;-74
2021/03/27 09:32:37;;;;;;;34.75;28.48;;;15.00;99.90;;;;;;5042744;28;20225;-74
2021/03/27 09:35:16;;;;;;;32.97;28.38;;;14.50;99.90;;;;;;5043874;28;20210;-76
2021/03/27 09:37:58;;;;;;;36.47;29.75;;;14.50;99.90;;;;;;5047031;28;20229;-75
2021/03/27 09:40:31;;;;;;;31.50;27.45;;;14.40;99.90;;;;;;5042172;28;20203;-76
2021/03/27 09:43:32;;;;;;;34.67;27.60;;;14.40;99.90;;;;;;5038334;28;20227;-76
2021/03/27 09:46:06;;;;;;;30.33;25.88;;;14.60;99.90;;;;;;5044655;28;20195;-75
2021/03/27 09:48:44;;;;;;;30.60;26.48;;;15.10;99.90;;;;;;5059756;22;20246;-69
2021/03/27 09:51:20;;;;;;;28.67;25.48;;;15.30;99.90;;;;;;5044331;28;20210;-70
2021/03/27 09:54:02;;;;;;;32.22;28.73;;;15.60;99.90;;;;;;5043469;28;20222;-67
2021/03/27 09:56:36;;;;;;;35.97;28.63;;;15.80;99.90;;;;;;5042035;28;20238;-70
2021/03/27 09:59:21;;;;;;;31.67;26.90;;;15.90;99.90;;;;;;5047931;28;20578;-71
2021/03/27 10:01:54;;;;;;;34.00;28.33;;;16.00;99.90;;;;;;5040547;28;20501;-67
2021/03/27 10:04:47;;;;;;;34.85;27.30;;;15.90;99.90;;;;;;5047031;28;20221;-69
2021/03/27 10:07:28;;;;;;;33.38;28.23;;;15.80;99.90;;;;;;5037313;28;20218;-70
2021/03/27 10:10:30;;;;;;;33.03;27.35;;;15.80;99.90;;;;;;5046423;28;20219;-69
2021/03/27 10:13:04;;;;;;;30.80;26.27;;;16.00;99.90;;;;;;5038133;28;20713;-69
2021/03/27 10:15:40;;;;;;;34.08;28.75;;;16.40;99.90;;;;;;5043759;28;20201;-69
2021/03/27 10:18:15;;;;;;;33.67;28.17;;;16.40;99.90;;;;;;5046598;28;20226;-69
2021/03/27 10:20:48;;;;;;;32.35;28.38;;;16.30;99.90;;;;;;5046932;28;20630;-69
2021/03/27 10:23:23;;;;;;;35.70;30.10;;;16.40;99.90;;;;;;5048222;28;20222;-70
2021/03/27 10:26:32;;;;;;;37.65;30.65;;;16.20;99.90;;;;;;5048240;28;20202;-69
2021/03/27 10:29:10;;;;;;;37.60;29.95;;;16.20;99.90;;;;;;4977145;28;20232;-69
2021/03/27 10:31:42;;;;;;;36.78;28.58;;;16.20;99.90;;;;;;5033965;28;20677;-69
2021/03/27 10:34:30;;;;;;;42.15;31.98;;;16.30;99.90;;;;;;5040724;28;20720;-69
2021/03/27 10:37:05;;;;;;;32.95;29.35;;;16.40;99.90;;;;;;5040174;28;20454;-70
2021/03/27 10:39:55;;;;;;;32.47;28.92;;;16.50;99.90;;;;;;5041046;28;20230;-69
2021/03/27 10:42:45;;;;;;;31.02;27.67;;;16.80;99.90;;;;;;5051748;28;20236;-71
2021/03/27 10:45:45;;;;;;;33.75;30.05;;;16.80;99.90;;;;;;5046921;28;20731;-71
2021/03/27 10:48:40;;;;;;;38.40;29.52;;;17.00;99.90;;;;;;5040940;28;20245;-71
2021/03/27 10:51:27;;;;;;;33.03;29.27;;;17.00;99.90;;;;;;5026730;28;20716;-70
2021/03/27 10:54:22;;;;;;;32.00;28.52;;;17.10;99.90;;;;;;5039770;28;20214;-70
2021/03/27 10:57:03;;;;;;;32.67;26.88;;;17.00;99.90;;;;;;5036275;28;20636;-69
2021/03/27 10:59:38;;;;;;;38.83;31.08;;;16.80;99.90;;;;;;5037512;28;20247;-69
2021/03/27 11:02:37;;;;;;;37.20;31.45;;;16.50;99.90;;;;;;5039601;28;20215;-69
2021/03/27 11:05:53;;;;;;;38.05;30.17;;;16.50;99.90;;;;;;5038642;28;20754;-69
2021/03/27 11:08:44;;;;;;;33.78;30.10;;;16.50;99.90;;;;;;5018150;28;20227;-68
2021/03/27 11:11:48;;;;;;;38.80;30.92;;;16.70;99.90;;;;;;5044605;28;20219;-68
2021/03/27 11:14:53;;;;;;;39.63;31.58;;;17.10;99.90;;;;;;5037156;28;20199;-68
2021/03/27 11:17:42;;;;;;;35.75;30.35;;;17.10;99.90;;;;;;5039641;28;20198;-70
2021/03/27 11:20:42;;;;;;;37.63;30.55;;;17.00;99.90;;;;;;5030431;28;20342;-71
2021/03/27 11:23:48;;;;;;;34.45;29.42;;;17.20;99.90;;;;;;5041514;28;20254;-71
2021/03/27 11:26:37;;;;;;;37.53;31.40;;;17.30;99.90;;;;;;5047331;28;20241;-69
2021/03/27 11:29:27;;;;;;;38.10;33.45;;;17.00;99.90;;;;;;5038192;28;20494;-71
2021/03/27 11:32:01;;;;;;;33.75;30.10;;;16.90;99.90;;;;;;5037939;28;20550;-68
2021/03/27 11:34:34;;;;;;;36.80;29.08;;;16.90;99.90;;;;;;5040601;28;20203;-69
2021/03/27 11:37:26;;;;;;;35.45;30.27;;;16.90;99.90;;;;;;5035313;28;20245;-70
2021/03/27 11:40:01;;;;;;;37.90;31.25;;;16.90;99.90;;;;;;5040952;28;20226;-71
2021/03/27 11:42:37;;;;;;;37.28;30.35;;;16.90;99.90;;;;;;5029054;28;20219;-70
2021/03/27 11:45:11;;;;;;;34.65;30.08;;;16.80;99.90;;;;;;5031764;28;20227;-70
2021/03/27 11:47:47;;;;;;;34.00;28.90;;;16.70;99.90;;;;;;5041518;28;20691;-70
2021/03/27 11:50:43;;;;;;;36.42;30.00;;;16.90;99.90;;;;;;5039897;28;20661;-71
2021/03/27 11:53:20;;;;;;;34.95;31.10;;;16.90;99.90;;;;;;5039942;28;20265;-70
2021/03/27 11:55:57;;;;;;;33.78;29.10;;;17.10;99.90;;;;;;5038012;28;20222;-70
2021/03/27 11:58:33;;;;;;;37.22;28.70;;;17.20;99.90;;;;;;5033806;28;20266;-70
2021/03/27 12:01:04;;;;;;;38.00;29.98;;;17.10;99.90;;;;;;5038269;28;20226;-71
2021/03/27 12:04:05;;;;;;;33.78;29.38;;;17.10;99.90;;;;;;5040287;28;20231;-69
2021/03/27 12:06:36;;;;;;;34.50;28.25;;;17.00;99.90;;;;;;5042022;28;20708;-69
2021/03/27 12:09:16;;;;;;;32.97;28.23;;;17.10;99.90;;;;;;5035450;28;20600;-68
2021/03/27 12:12:18;;;;;;;31.08;27.42;;;17.00;99.90;;;;;;5054881;28;20214;-69
2021/03/27 12:14:53;;;;;;;30.83;27.00;;;17.00;99.90;;;;;;5045635;28;20665;-68
2021/03/27 12:17:28;;;;;;;32.78;26.40;;;17.20;99.90;;;;;;5042181;28;20248;-68
2021/03/27 12:20:02;;;;;;;33.28;27.05;;;17.10;99.90;;;;;;5043365;28;20221;-69
2021/03/27 12:22:34;;;;;;;35.08;28.10;;;17.00;99.90;;;;;;5041982;28;20411;-69
2021/03/27 12:25:39;;;;;;;33.03;24.95;;;17.10;99.90;;;;;;5038253;28;20602;-68
2021/03/27 12:28:15;;;;;;;30.50;25.08;;;17.20;99.90;;;;;;5033866;28;20716;-69
2021/03/27 12:30:49;;;;;;;30.02;25.35;;;17.20;99.90;;;;;;5040605;28;20218;-69
2021/03/27 12:33:23;;;;;;;29.33;25.27;;;17.00;99.90;;;;;;5037858;28;20200;-69
2021/03/27 12:35:54;;;;;;;31.15;25.80;;;17.00;99.90;;;;;;5039739;28;20906;-69
2021/03/27 12:38:42;;;;;;;28.13;25.15;;;16.90;99.90;;;;;;5037820;28;20681;-69
2021/03/27 12:41:16;;;;;;;30.48;24.60;;;17.10;99.90;;;;;;5033654;28;20307;-69
2021/03/27 12:43:48;;;;;;;30.50;23.58;;;16.90;99.90;;;;;;5037445;28;20866;-69
2021/03/27 12:46:30;;;;;;;26.48;22.88;;;17.00;99.90;;;;;;5041443;28;20234;-68
2021/03/27 12:49:26;;;;;;;25.92;23.13;;;17.00;99.90;;;;;;5034911;28;20222;-68
2021/03/27 12:52:07;;;;;;;26.63;22.25;;;16.80;99.90;;;;;;5037636;28;20735;-68
2021/03/27 12:54:38;;;;;;;27.63;22.17;;;16.80;99.90;;;;;;5041624;28;20198;-68
2021/03/27 12:57:33;;;;;;;25.00;21.08;;;16.60;99.90;;;;;;5049191;28;20226;-69
2021/03/27 13:00:35;;;;;;;23.08;19.25;;;16.50;99.90;;;;;;5027626;28;20226;-68
2021/03/27 13:03:15;;;;;;;23.25;20.33;;;16.20;99.90;;;;;;5009537;28;20330;-68
2021/03/27 13:05:46;;;;;;;24.55;20.30;;;16.20;99.90;;;;;;5043484;28;20697;-70
2021/03/27 13:08:20;;;;;;;23.13;20.58;;;16.40;99.90;;;;;;5043850;28;20226;-71
2021/03/27 13:10:57;;;;;;;19.58;17.48;;;16.70;99.90;;;;;;5036012;28;20226;-70
2021/03/27 13:14:00;;;;;;;24.75;20.55;;;16.80;99.90;;;;;;5038623;28;20191;-70
2021/03/27 13:16:40;;;;;;;20.52;18.10;;;17.00;99.90;;;;;;5033191;28;20218;-71
2021/03/27 13:19:19;;;;;;;22.40;19.38;;;17.20;99.90;;;;;;5035638;28;20234;-71
2021/03/27 13:22:06;;;;;;;23.00;20.42;;;17.20;99.90;;;;;;5038360;28;20586;-70
2021/03/27 13:25:04;;;;;;;23.77;20.60;;;17.10;99.90;;;;;;5035792;28;20740;-69
2021/03/27 13:27:46;;;;;;;23.85;20.48;;;17.10;99.90;;;;;;5040531;28;20214;-69
2021/03/27 13:30:20;;;;;;;22.60;20.27;;;17.10;99.90;;;;;;5036913;28;20654;-69
2021/03/27 13:32:56;;;;;;;22.55;19.25;;;17.00;99.90;;;;;;5041324;28;20238;-69
2021/03/27 13:35:32;;;;;;;25.20;20.70;;;17.00;99.90;;;;;;5042900;28;20195;-69
2021/03/27 13:38:08;;;;;;;26.00;20.35;;;16.90;99.90;;;;;;5040661;28;20305;-69
2021/03/27 13:40:38;;;;;;;22.42;19.65;;;16.90;99.90;;;;;;5044831;28;20289;-69
2021/03/27 13:43:15;;;;;;;26.75;20.73;;;17.00;99.90;;;;;;5042964;28;20281;-68
2021/03/27 13:46:00;;;;;;;22.55;17.25;;;17.00;99.90;;;;;;5039657;28;20222;-70
2021/03/27 13:48:47;;;;;;;22.35;19.17;;;17.00;99.90;;;;;;5038450;28;20226;-70
2021/03/27 13:51:24;;;;;;;18.27;16.38;;;17.10;99.90;;;;;;5040337;28;20226;-69
2021/03/27 13:54:19;;;;;;;20.52;17.27;;;17.20;99.90;;;;;;5041515;28;20593;-69
2021/03/27 13:56:54;;;;;;;22.80;19.40;;;17.20;99.90;;;;;;5040565;28;20219;-70